createdAt,value
2022-10-03T00:01:17.908Z,3.05
2022-10-03T00:04:00.450Z,2.90
2022-10-03T00:06:54.183Z,3.42
2022-10-03T00:09:43.516Z,2.88
2022-10-03T00:12:33.466Z,3.30
2022-10-03T00:15:12.018Z,2.58
2022-10-03T00:18:13.083Z,2.80
2022-10-03T00:20:45.878Z,2.90
2022-10-03T00:23:51.272Z,2.83
2022-10-03T00:29:13.832Z,2.42
2022-10-03T00:32:05.628Z,2.50
2022-10-03T00:34:50.531Z,2.15
2022-10-03T00:37:23.071Z,2.08
2022-10-03T00:40:27.629Z,2.47
2022-10-03T00:43:20.360Z,2.27
2022-10-03T00:46:22.437Z,2.08
2022-10-03T00:49:22.834Z,2.47
2022-10-03T00:52:17.408Z,1.67
2022-10-03T00:55:02.613Z,2.15
2022-10-03T00:58:01.150Z,2.08
2022-10-03T01:00:32.720Z,1.92
2022-10-03T01:03:28.656Z,1.75
2022-10-03T01:06:06.064Z,1.90
2022-10-03T01:08:58.306Z,2.10
2022-10-03T01:11:46.708Z,1.77
2022-10-03T01:14:38.379Z,1.70
2022-10-03T01:17:23.768Z,1.75
2022-10-03T01:20:06.925Z,1.95
2022-10-03T01:22:49.060Z,1.90
2022-10-03T01:25:26.271Z,1.67
2022-10-03T01:28:19.309Z,1.90
2022-10-03T01:30:52.520Z,1.80
2022-10-03T01:33:35.050Z,1.70
2022-10-03T01:36:35.567Z,2.20
2022-10-03T01:39:20.239Z,1.65
2022-10-03T01:42:01.450Z,1.80
2022-10-03T01:44:55.406Z,2.00
2022-10-03T01:47:28.337Z,1.60
2022-10-03T01:49:58.151Z,1.63
2022-10-03T01:52:35.929Z,1.52
2022-10-03T01:55:16.177Z,1.50
2022-10-03T01:58:06.410Z,1.20
2022-10-03T02:01:01.813Z,1.70
2022-10-03T02:03:50.266Z,1.42
2022-10-03T02:06:29.986Z,1.70
2022-10-03T02:09:21.355Z,1.77
2022-10-03T02:11:51.277Z,1.50
2022-10-03T02:14:48.323Z,1.58
2022-10-03T02:17:54.292Z,1.35
2022-10-03T02:20:28.155Z,1.80
2022-10-03T02:22:57.829Z,1.75
2022-10-03T02:25:59.200Z,1.95
2022-10-03T02:28:35.024Z,2.10
2022-10-03T02:31:14.011Z,1.95
2022-10-03T02:34:20.923Z,1.70
2022-10-03T02:37:19.313Z,1.42
2022-10-03T02:40:20.032Z,1.70
2022-10-03T02:42:52.587Z,1.73
2022-10-03T02:45:36.767Z,1.90
2022-10-03T02:48:27.467Z,1.40
2022-10-03T02:51:22.526Z,1.60
2022-10-03T02:54:08.026Z,1.63
2022-10-03T02:56:53.702Z,1.60
2022-10-03T02:59:38.729Z,1.58
2022-10-03T03:02:29.254Z,1.50
2022-10-03T03:05:33.957Z,1.50
2022-10-03T03:08:36.822Z,1.60
2022-10-03T03:11:38.743Z,1.55
2022-10-03T03:14:31.684Z,1.70
2022-10-03T03:17:32.169Z,1.75
2022-10-03T03:20:31.248Z,1.88
2022-10-03T03:23:41.076Z,1.73
2022-10-03T03:26:42.947Z,1.77
2022-10-03T03:29:28.164Z,1.80
2022-10-03T03:32:02.074Z,1.60
2022-10-03T03:34:46.105Z,2.00
2022-10-03T03:37:36.705Z,1.90
2022-10-03T03:40:07.059Z,1.73
2022-10-03T03:42:46.467Z,1.88
2022-10-03T03:45:18.203Z,1.65
2022-10-03T03:48:06.259Z,2.20
2022-10-03T03:50:43.418Z,2.05
2022-10-03T03:53:25.488Z,2.30
2022-10-03T03:56:06.981Z,2.13
2022-10-03T03:58:45.179Z,2.47
2022-10-03T04:01:17.786Z,2.42
2022-10-03T04:03:51.385Z,2.63
2022-10-03T04:06:46.215Z,3.03
2022-10-03T04:10:01.102Z,2.30
2022-10-03T04:13:01.828Z,2.13
2022-10-03T04:15:39.359Z,2.47
2022-10-03T04:18:45.409Z,2.70
2022-10-03T04:21:26.716Z,2.63
2022-10-03T04:23:53.459Z,2.75
2022-10-03T04:26:59.700Z,2.88
2022-10-03T04:29:38.858Z,2.83
2022-10-03T04:32:45.342Z,3.00
2022-10-03T04:35:40.274Z,2.63
2022-10-03T04:38:25.692Z,2.42
2022-10-03T04:41:17.394Z,1.98
2022-10-03T04:44:15.523Z,2.75
2022-10-03T04:46:55.770Z,2.42
2022-10-03T04:49:22.834Z,2.53
2022-10-03T04:51:55.705Z,2.42
2022-10-03T04:54:30.399Z,2.33
2022-10-03T04:57:15.179Z,2.67
2022-10-03T05:02:35.816Z,2.70
2022-10-03T05:05:14.917Z,2.55
2022-10-03T05:07:56.463Z,2.55
2022-10-03T05:10:50.653Z,2.70
2022-10-03T05:13:30.367Z,2.53
2022-10-03T05:16:10.085Z,2.78
2022-10-03T05:19:01.874Z,3.10
2022-10-03T05:21:40.386Z,2.47
2022-10-03T05:24:28.968Z,2.78
2022-10-03T05:27:35.706Z,2.63
2022-10-03T05:30:09.547Z,2.58
2022-10-03T05:33:06.312Z,2.58
2022-10-03T05:35:44.505Z,2.70
2022-10-03T05:38:50.055Z,2.75
2022-10-03T05:44:18.035Z,2.00
2022-10-03T05:46:54.081Z,2.33
2022-10-03T05:49:54.145Z,2.47
2022-10-03T05:52:39.203Z,2.50
2022-10-03T05:55:38.064Z,2.85
2022-10-03T05:58:05.303Z,2.60
2022-10-03T06:00:52.870Z,2.42
2022-10-03T06:03:40.691Z,2.20
2022-10-03T06:06:24.701Z,2.20
2022-10-03T06:09:00.179Z,2.27
2022-10-03T06:11:40.438Z,2.25
2022-10-03T06:14:45.033Z,2.17
2022-10-03T06:17:42.234Z,2.25
2022-10-03T06:20:47.554Z,2.65
2022-10-03T06:23:45.179Z,2.33
2022-10-03T06:26:39.768Z,2.40
2022-10-03T06:29:37.012Z,3.03
2022-10-03T06:32:18.808Z,2.58
2022-10-03T06:35:07.226Z,2.60
2022-10-03T06:37:58.948Z,2.58
2022-10-03T06:40:53.701Z,2.42
2022-10-03T06:43:53.696Z,2.65
2022-10-03T06:46:59.207Z,2.80
2022-10-03T06:52:30.840Z,2.13
2022-10-03T06:55:10.409Z,2.80
2022-10-03T06:57:52.576Z,2.53
2022-10-03T07:00:24.635Z,2.15
2022-10-03T07:03:10.840Z,2.47
2022-10-03T07:06:08.042Z,2.38
2022-10-03T07:08:42.120Z,2.75
2022-10-03T07:11:15.244Z,3.10
2022-10-03T07:14:00.887Z,3.00
2022-10-03T07:16:59.743Z,3.03
2022-10-03T07:20:04.100Z,2.88
2022-10-03T07:22:46.185Z,3.35
2022-10-03T07:25:25.686Z,3.22
2022-10-03T07:28:07.616Z,3.88
2022-10-03T07:30:57.999Z,3.80
2022-10-03T07:33:27.754Z,4.35
2022-10-03T07:36:47.096Z,3.97
2022-10-03T07:40:00.177Z,4.35
2022-10-03T07:42:46.674Z,4.55
2022-10-03T07:45:39.536Z,4.13
2022-10-03T07:48:18.671Z,4.47
2022-10-03T07:50:50.689Z,4.80
2022-10-03T07:53:34.791Z,4.63
2022-10-03T07:56:35.777Z,4.70
2022-10-03T07:59:28.301Z,4.82
2022-10-03T08:02:14.168Z,5.22
2022-10-03T08:05:08.324Z,4.90
2022-10-03T08:07:50.133Z,5.03
2022-10-03T08:10:44.425Z,4.65
2022-10-03T08:13:17.166Z,4.47
2022-10-03T08:16:02.297Z,4.88
2022-10-03T08:19:10.537Z,4.78
2022-10-03T08:21:55.554Z,4.30
2022-10-03T08:29:40.592Z,4.32
2022-10-03T08:32:26.217Z,4.00
2022-10-03T08:35:20.548Z,4.45
2022-10-03T08:38:27.890Z,4.85
2022-10-03T08:41:00.611Z,3.70
2022-10-03T08:44:09.105Z,4.20
2022-10-03T08:46:55.139Z,4.40
2022-10-03T08:49:22.211Z,5.05
2022-10-03T08:51:54.937Z,4.13
2022-10-03T08:54:31.063Z,4.15
2022-10-03T08:57:17.488Z,4.55
2022-10-03T09:00:15.790Z,3.95
2022-10-03T09:03:31.966Z,4.20
2022-10-03T09:06:09.480Z,3.67
2022-10-03T09:09:24.594Z,4.03
2022-10-03T09:12:32.402Z,3.70
2022-10-03T09:15:49.894Z,3.65
2022-10-03T09:18:46.841Z,4.03
2022-10-03T09:21:38.540Z,3.65
2022-10-03T09:24:35.418Z,4.05
2022-10-03T09:27:39.446Z,4.40
2022-10-03T09:30:24.527Z,3.90
2022-10-03T09:33:15.889Z,3.55
2022-10-03T09:36:24.935Z,3.45
2022-10-03T09:39:00.998Z,2.97
2022-10-03T09:41:37.981Z,3.30
2022-10-03T09:44:29.639Z,3.10
2022-10-03T09:47:24.115Z,3.38
2022-10-03T09:50:21.799Z,3.10
2022-10-03T09:53:10.140Z,3.40
2022-10-03T09:56:06.948Z,2.70
2022-10-03T09:59:07.217Z,2.53
2022-10-03T10:01:50.998Z,2.45
2022-10-03T10:04:54.339Z,2.35
2022-10-03T10:07:43.463Z,2.65
2022-10-03T10:10:19.066Z,2.33
2022-10-03T10:13:18.117Z,2.92
2022-10-03T10:16:13.913Z,2.35
2022-10-03T10:19:14.971Z,2.08
2022-10-03T10:21:41.780Z,2.45
2022-10-03T10:24:36.769Z,2.83
2022-10-03T10:27:42.227Z,2.45
2022-10-03T10:33:13.041Z,1.65
2022-10-03T10:36:06.805Z,1.75
2022-10-03T10:38:59.158Z,1.70
2022-10-03T10:42:07.751Z,1.77
2022-10-03T10:44:53.954Z,1.75
2022-10-03T10:47:57.415Z,1.63
2022-10-03T10:50:39.784Z,1.60
2022-10-03T10:53:44.268Z,2.10
2022-10-03T10:57:04.039Z,1.90
2022-10-03T10:59:49.533Z,1.52
2022-10-03T11:02:41.373Z,1.95
2022-10-03T11:05:29.684Z,1.70
2022-10-03T11:08:24.197Z,1.88
2022-10-03T11:11:35.961Z,1.77
2022-10-03T11:14:40.259Z,2.17
2022-10-03T11:17:31.807Z,1.98
2022-10-03T11:20:35.966Z,1.90
2022-10-03T11:23:34.068Z,1.65
2022-10-03T11:26:21.936Z,1.67
2022-10-03T11:29:04.226Z,1.52
2022-10-03T11:31:56.129Z,1.50
2022-10-03T11:34:52.373Z,1.98
2022-10-03T11:37:38.019Z,1.67
2022-10-03T11:40:22.481Z,1.80
2022-10-03T11:45:32.601Z,1.85
2022-10-03T11:48:07.912Z,1.50
2022-10-03T11:50:45.435Z,1.70
2022-10-03T11:53:29.132Z,1.83
2022-10-03T11:56:07.852Z,1.38
2022-10-03T11:58:56.420Z,1.60
2022-10-03T12:01:32.287Z,1.65
2022-10-03T12:04:19.956Z,1.92
2022-10-03T12:07:18.821Z,1.65
2022-10-03T12:10:02.974Z,1.52
2022-10-03T12:12:54.991Z,1.73
2022-10-03T12:15:27.935Z,1.98
2022-10-03T12:18:05.926Z,1.60
2022-10-03T12:21:11.079Z,1.60
2022-10-03T12:24:01.393Z,1.77
2022-10-03T12:26:43.418Z,1.55
2022-10-03T12:29:16.610Z,1.60
2022-10-03T12:32:09.422Z,1.50
2022-10-03T12:35:00.233Z,1.20
2022-10-03T12:37:50.158Z,1.30
2022-10-03T12:40:28.327Z,1.55
2022-10-03T12:43:04.199Z,1.08
2022-10-03T12:46:01.883Z,1.33
2022-10-03T12:48:43.156Z,1.30
2022-10-03T12:51:36.044Z,1.30
2022-10-03T12:54:11.947Z,1.50
2022-10-03T12:56:44.263Z,1.40
2022-10-03T12:59:11.004Z,1.45
2022-10-03T13:01:59.562Z,1.50
2022-10-03T13:04:37.217Z,1.50
2022-10-03T13:07:41.727Z,1.08
2022-10-03T13:10:42.630Z,1.17
2022-10-03T13:13:32.083Z,1.35
2022-10-03T13:16:04.184Z,1.00
2022-10-03T13:18:53.279Z,1.05
2022-10-03T13:22:08.648Z,1.25
2022-10-03T13:24:42.116Z,1.02
2022-10-03T13:27:37.312Z,1.10
2022-10-03T13:32:46.638Z,1.40
2022-10-03T13:35:45.446Z,1.27
2022-10-03T13:38:31.846Z,1.50
2022-10-03T13:41:17.576Z,1.58
2022-10-03T13:43:55.868Z,1.40
2022-10-03T13:46:37.423Z,1.20
2022-10-03T13:49:12.720Z,1.73
2022-10-03T13:51:58.212Z,1.60
2022-10-03T13:54:51.009Z,1.65
2022-10-03T13:57:26.704Z,1.67
2022-10-03T13:59:53.435Z,1.42
2022-10-03T14:02:27.211Z,1.73
2022-10-03T14:05:20.171Z,1.50
2022-10-03T14:08:15.177Z,1.45
2022-10-03T14:10:58.951Z,1.40
2022-10-03T14:13:44.542Z,1.50
2022-10-03T14:16:27.174Z,1.70
2022-10-03T14:19:02.801Z,1.60
2022-10-03T14:21:48.375Z,1.52
2022-10-03T14:24:24.676Z,1.90
2022-10-03T14:27:21.661Z,1.83
2022-10-03T14:29:59.980Z,1.90
2022-10-03T14:32:54.093Z,1.90
2022-10-03T14:35:41.886Z,1.77
2022-10-03T14:38:20.580Z,1.92
2022-10-03T14:40:52.017Z,1.73
2022-10-03T14:43:38.617Z,1.80
2022-10-03T14:46:06.702Z,2.03
2022-10-03T14:48:45.823Z,1.95
2022-10-03T14:51:30.932Z,2.17
2022-10-03T14:54:02.893Z,2.33
2022-10-03T14:56:41.468Z,2.00
2022-10-03T14:59:40.812Z,2.10
2022-10-03T15:02:38.301Z,2.00
2022-10-03T15:05:12.364Z,2.22
2022-10-03T15:07:43.113Z,1.95
2022-10-03T15:10:15.447Z,2.00
2022-10-03T15:12:47.350Z,2.03
2022-10-03T15:15:25.246Z,2.03
2022-10-03T15:17:54.613Z,1.90
2022-10-03T15:20:30.109Z,2.25
2022-10-03T15:23:01.100Z,2.22
2022-10-03T15:25:41.587Z,2.35
2022-10-03T15:29:13.558Z,2.15
2022-10-03T15:31:46.368Z,2.45
2022-10-03T15:34:20.919Z,2.13
2022-10-03T15:36:51.011Z,2.17
2022-10-03T15:39:35.396Z,2.60
2022-10-03T15:42:23.316Z,2.28
2022-10-03T15:44:53.562Z,2.03
2022-10-03T15:47:20.490Z,2.05
2022-10-03T15:49:57.197Z,2.58
2022-10-03T15:52:30.976Z,2.50
2022-10-03T15:55:12.612Z,2.70
2022-10-03T15:57:49.068Z,2.55
2022-10-03T16:00:21.822Z,2.35
2022-10-03T16:03:08.652Z,2.05
2022-10-03T16:05:37.111Z,2.13
2022-10-03T16:08:19.364Z,2.13
2022-10-03T16:11:13.604Z,2.03
2022-10-03T16:13:45.677Z,2.50
2022-10-03T16:16:24.238Z,2.67
2022-10-03T16:18:56.752Z,1.98
2022-10-03T16:21:38.715Z,2.25
2022-10-03T16:24:07.923Z,1.88
2022-10-03T16:26:49.932Z,2.20
2022-10-03T16:29:27.409Z,2.63
2022-10-03T16:32:06.665Z,2.47
2022-10-03T16:34:36.038Z,2.50
2022-10-03T16:37:15.066Z,2.30
2022-10-03T16:39:51.693Z,2.05
2022-10-03T16:42:25.818Z,2.08
2022-10-03T16:44:56.084Z,2.40
2022-10-03T16:47:38.762Z,2.10
2022-10-03T16:50:27.454Z,2.22
2022-10-03T16:52:58.693Z,2.42
2022-10-03T16:55:50.879Z,2.45
2022-10-03T16:58:26.156Z,1.88
2022-10-03T17:01:26.297Z,2.13
2022-10-03T17:04:20.390Z,2.13
2022-10-03T17:06:50.160Z,2.50
2022-10-03T17:09:21.564Z,2.20
2022-10-03T17:11:54.524Z,2.15
2022-10-03T17:14:22.707Z,2.30
2022-10-03T17:17:02.749Z,2.30
2022-10-03T17:19:35.072Z,2.60
2022-10-03T17:22:07.707Z,2.30
2022-10-03T17:24:57.549Z,2.40
2022-10-03T17:27:48.265Z,2.13
2022-10-03T17:30:23.804Z,2.28
2022-10-03T17:32:59.634Z,2.28
2022-10-03T17:35:58.995Z,2.20
2022-10-03T17:38:49.682Z,1.85
2022-10-03T17:41:23.895Z,1.83
2022-10-03T17:44:05.848Z,2.17
2022-10-03T17:47:05.337Z,2.47
2022-10-03T17:49:45.562Z,2.40
2022-10-03T17:52:16.155Z,2.55
2022-10-03T17:54:47.196Z,2.00
2022-10-03T17:57:37.438Z,2.25
2022-10-03T18:00:24.216Z,2.40
2022-10-03T18:03:22.450Z,2.03
2022-10-03T18:05:53.409Z,2.58
2022-10-03T18:08:27.588Z,2.45
2022-10-03T18:10:58.555Z,2.33
2022-10-03T18:13:37.162Z,2.30
2022-10-03T18:16:22.323Z,2.33
2022-10-03T18:19:04.551Z,2.30
2022-10-03T18:21:50.043Z,2.42
2022-10-03T18:24:54.726Z,2.67
2022-10-03T18:27:37.727Z,2.88
2022-10-03T18:30:13.584Z,2.28
2022-10-03T18:32:42.671Z,2.40
2022-10-03T18:35:22.481Z,2.60
2022-10-03T18:38:12.378Z,2.83
2022-10-03T18:41:00.423Z,2.45
2022-10-03T18:43:34.564Z,2.85
2022-10-03T18:46:14.140Z,2.30
2022-10-03T18:49:34.794Z,2.60
2022-10-03T18:52:29.346Z,2.65
2022-10-03T18:55:09.526Z,2.67
2022-10-03T18:57:49.471Z,3.00
2022-10-03T19:00:24.987Z,2.63
2022-10-03T19:02:55.183Z,2.67
2022-10-03T19:05:21.972Z,3.00
2022-10-03T19:08:12.295Z,3.00
2022-10-03T19:11:02.765Z,2.78
2022-10-03T19:13:42.273Z,2.92
2022-10-03T19:16:31.853Z,2.42
2022-10-03T19:19:34.310Z,3.00
2022-10-03T19:22:05.704Z,2.78
2022-10-03T19:24:57.418Z,2.90
2022-10-03T19:27:39.154Z,3.00
2022-10-03T19:30:07.507Z,3.00
2022-10-03T19:32:57.001Z,2.90
2022-10-03T19:35:25.170Z,2.80
2022-10-03T19:38:12.961Z,2.67
2022-10-03T19:40:49.550Z,2.83
2022-10-03T19:43:35.792Z,2.70
2022-10-03T19:46:12.289Z,3.00
2022-10-03T19:48:48.818Z,2.88
2022-10-03T19:51:22.594Z,2.78
2022-10-03T19:53:53.200Z,2.50
2022-10-03T19:56:23.456Z,3.05
2022-10-03T19:59:02.284Z,2.88
2022-10-03T20:01:42.936Z,2.95
2022-10-03T20:04:11.140Z,2.47
2022-10-03T20:06:46.136Z,3.13
2022-10-03T20:09:24.680Z,3.20
2022-10-03T20:11:57.500Z,3.10
2022-10-03T20:14:29.265Z,2.85
2022-10-03T20:17:02.134Z,2.97
2022-10-03T20:19:55.828Z,3.20
2022-10-03T20:22:26.036Z,3.00
2022-10-03T20:24:53.507Z,2.75
2022-10-03T20:27:38.759Z,3.05
2022-10-03T20:30:30.553Z,3.10
2022-10-03T20:32:59.416Z,3.28
2022-10-03T20:35:51.507Z,2.97
2022-10-03T20:38:26.104Z,3.20
2022-10-03T20:41:09.910Z,2.58
2022-10-03T20:43:41.871Z,3.53
2022-10-03T20:46:22.031Z,3.10
2022-10-03T20:49:00.912Z,2.63
2022-10-03T20:52:04.232Z,2.95
2022-10-03T20:54:37.172Z,2.63
2022-10-03T20:57:07.015Z,2.72
2022-10-03T20:59:55.967Z,3.20
2022-10-03T21:02:47.067Z,2.58
2022-10-03T21:05:25.696Z,2.70
2022-10-03T21:07:59.182Z,2.65
2022-10-03T21:11:09.035Z,2.55
2022-10-03T21:13:58.936Z,2.80
2022-10-03T21:16:30.289Z,3.13
2022-10-03T21:19:01.480Z,2.90
2022-10-03T21:21:43.302Z,2.95
2022-10-03T21:24:10.417Z,3.03
2022-10-03T21:26:54.025Z,2.75
2022-10-03T21:29:23.788Z,2.80
2022-10-03T21:32:28.175Z,3.30
2022-10-03T21:35:16.810Z,2.97
2022-10-03T21:37:50.899Z,2.78
2022-10-03T21:40:47.000Z,2.88
2022-10-03T21:43:31.784Z,2.88
2022-10-03T21:48:56.323Z,2.17
2022-10-03T21:51:44.929Z,2.63
2022-10-03T21:54:45.677Z,2.47
2022-10-03T21:58:08.784Z,3.00
2022-10-03T22:00:57.465Z,2.67
2022-10-03T22:03:34.814Z,2.85
2022-10-03T22:06:34.470Z,3.08
2022-10-03T22:09:05.854Z,2.65
2022-10-03T22:11:49.984Z,3.03
2022-10-03T22:14:43.837Z,2.80
2022-10-03T22:17:26.294Z,2.60
2022-10-03T22:20:14.172Z,2.92
2022-10-03T22:23:17.938Z,2.85
2022-10-03T22:26:07.806Z,2.78
2022-10-03T22:28:58.877Z,2.97
2022-10-03T22:31:28.648Z,2.60
2022-10-03T22:34:04.659Z,2.63
2022-10-03T22:36:35.124Z,2.70
2022-10-03T22:39:02.203Z,2.67
2022-10-03T22:41:31.183Z,2.67
2022-10-03T22:43:59.933Z,2.67
2022-10-03T22:46:30.514Z,2.90
2022-10-03T22:49:05.609Z,3.00
2022-10-03T22:51:34.822Z,3.17
2022-10-03T22:54:11.240Z,2.88
2022-10-03T22:56:51.098Z,2.65
2022-10-03T22:59:28.706Z,2.65
2022-10-03T23:01:58.935Z,2.83
2022-10-03T23:04:32.608Z,2.78
2022-10-03T23:07:19.639Z,2.70
2022-10-03T23:09:52.297Z,2.45
2022-10-03T23:12:21.952Z,2.42
2022-10-03T23:14:51.495Z,2.38
2022-10-03T23:17:36.916Z,2.42
2022-10-03T23:20:47.504Z,2.72
2022-10-03T23:23:22.611Z,2.40
2022-10-03T23:25:52.806Z,2.22
2022-10-03T23:28:40.093Z,2.35
2022-10-03T23:31:07.373Z,2.33
2022-10-03T23:33:34.185Z,2.78
2022-10-03T23:36:06.487Z,2.90
2022-10-03T23:38:33.444Z,2.63
2022-10-03T23:41:08.846Z,2.33
2022-10-03T23:43:44.912Z,2.72
2022-10-03T23:46:24.023Z,2.60
2022-10-03T23:48:56.051Z,2.28
2022-10-03T23:51:32.667Z,2.10
2022-10-03T23:54:02.609Z,2.30
2022-10-03T23:56:41.260Z,2.75
2022-10-03T23:59:24.748Z,2.80
